Time;durP1;ratioP1;P1;durP2;ratioP2;P2;SDS_P1;SDS_P2;PMS_P1;PMS_P2;Temp;Humidity;BMP_temperature;BMP_pressure;BME280_temperature;BME280_humidity;BME280_pressure;Samples;Min_cycle;Max_cycle;Signal;HPM_P1;HPM_P2
2021/08/26 00:08:06;;;;;;;8.90;4.93;;;;;;;;;;8259941;28;20369;-73
2021/08/26 00:12:12;;;;;;;12.13;5.47;;;;;;;;;;8256938;28;20343;-73
2021/08/26 00:16:24;;;;;;;14.43;5.53;;;;;;;;;;8255909;28;20387;-73
2021/08/26 00:20:29;;;;;;;13.32;5.28;;;;;;;;;;8256033;28;20368;-73
2021/08/26 00:24:37;;;;;;;15.32;6.25;;;;;;;;;;8257656;28;20072;-73
2021/08/26 00:28:43;;;;;;;13.70;5.22;;;;;;;;;;8257209;28;20068;-74
2021/08/26 00:32:48;;;;;;;11.20;5.53;;;;;;;;;;8256636;28;20485;-73
2021/08/26 00:36:53;;;;;;;12.73;5.53;;;;;;;;;;8257266;28;20360;-74
2021/08/26 00:41:00;;;;;;;14.77;4.90;;;;;;;;;;8257680;28;20029;-73
2021/08/26 00:45:08;;;;;;;13.63;5.30;;;;;;;;;;8257118;28;20475;-73
2021/08/26 00:49:16;;;;;;;9.70;4.70;;;;;;;;;;8256720;28;20363;-73
2021/08/26 00:53:23;;;;;;;10.77;5.63;;;;;;;;;;8239864;28;20394;-73
2021/08/26 00:57:33;;;;;;;13.02;5.93;;;;;;;;;;8254611;28;20049;-73
2021/08/26 01:01:50;;;;;;;10.88;5.32;;;;;;;;;;8256938;28;20348;-73
2021/08/26 01:06:00;;;;;;;10.70;4.93;;;;;;;;;;8255757;28;20455;-74
2021/08/26 01:10:14;;;;;;;12.43;5.32;;;;;;;;;;8262636;28;20371;-73
2021/08/26 01:14:20;;;;;;;11.30;5.75;;;;;;;;;;8264542;28;20325;-74
2021/08/26 01:18:27;;;;;;;10.40;4.65;;;;;;;;;;8262933;28;20482;-73
2021/08/26 01:22:34;;;;;;;12.07;6.03;;;;;;;;;;8262356;28;20064;-73
2021/08/26 01:27:00;;;;;;;14.32;5.90;;;;;;;;;;8262054;28;20502;-74
2021/08/26 01:31:06;;;;;;;10.38;4.90;;;;;;;;;;8243895;28;21127;-73
2021/08/26 01:35:11;;;;;;;13.32;6.05;;;;;;;;;;8261809;28;20473;-73
2021/08/26 01:39:17;;;;;;;9.30;5.30;;;;;;;;;;8263024;28;20470;-74
2021/08/26 01:43:23;;;;;;;9.25;5.00;;;;;;;;;;8263759;28;20732;-74
2021/08/26 01:47:28;;;;;;;13.77;5.80;;;;;;;;;;8261170;28;20372;-73
2021/08/26 01:51:34;;;;;;;12.93;6.03;;;;;;;;;;8260309;28;20498;-73
2021/08/26 01:55:40;;;;;;;12.63;5.80;;;;;;;;;;8259792;28;20365;-73
2021/08/26 01:59:46;;;;;;;13.07;5.82;;;;;;;;;;8260003;28;20349;-74
2021/08/26 02:03:51;;;;;;;15.52;6.07;;;;;;;;;;8259151;28;20388;-73
2021/08/26 02:07:56;;;;;;;12.02;6.38;;;;;;;;;;8260648;28;20486;-74
2021/08/26 02:12:02;;;;;;;14.35;6.07;;;;;;;;;;8261375;28;20344;-73
2021/08/26 02:16:08;;;;;;;14.77;6.53;;;;;;;;;;8260766;28;20398;-74
2021/08/26 02:20:14;;;;;;;16.13;6.68;;;;;;;;;;8259943;28;20041;-73
2021/08/26 02:24:19;;;;;;;17.50;7.00;;;;;;;;;;8260282;28;20371;-74
2021/08/26 02:28:24;;;;;;;15.68;7.13;;;;;;;;;;8260799;28;20482;-74
2021/08/26 02:32:29;;;;;;;15.07;6.60;;;;;;;;;;8259900;28;20080;-73
2021/08/26 02:36:34;;;;;;;14.07;6.97;;;;;;;;;;8260987;28;20044;-73
2021/08/26 02:40:39;;;;;;;14.48;6.65;;;;;;;;;;8260278;28;20330;-73
2021/08/26 02:44:44;;;;;;;15.23;7.70;;;;;;;;;;8260221;28;20364;-74
2021/08/26 02:48:49;;;;;;;12.23;5.70;;;;;;;;;;8260161;28;20479;-74
2021/08/26 02:52:54;;;;;;;12.27;6.07;;;;;;;;;;8260289;28;20360;-73
2021/08/26 02:56:59;;;;;;;14.10;5.78;;;;;;;;;;8259507;28;20353;-73
2021/08/26 03:01:04;;;;;;;18.50;6.47;;;;;;;;;;8259593;28;20375;-73
2021/08/26 03:05:10;;;;;;;13.07;6.45;;;;;;;;;;8260248;28;20060;-74
2021/08/26 03:09:15;;;;;;;10.90;6.05;;;;;;;;;;8260479;28;20349;-73
2021/08/26 03:13:20;;;;;;;12.50;6.07;;;;;;;;;;8260040;28;20483;-74
2021/08/26 03:17:25;;;;;;;10.90;5.80;;;;;;;;;;8256707;28;20063;-74
2021/08/26 03:21:30;;;;;;;12.20;6.05;;;;;;;;;;8261041;28;20360;-74
2021/08/26 03:25:36;;;;;;;14.00;6.57;;;;;;;;;;8258081;28;20049;-74
2021/08/26 03:29:43;;;;;;;13.63;6.38;;;;;;;;;;8257447;28;20486;-73
2021/08/26 03:33:48;;;;;;;13.10;5.90;;;;;;;;;;8257258;28;20484;-73
2021/08/26 03:37:54;;;;;;;10.85;5.30;;;;;;;;;;8258789;28;20491;-74
2021/08/26 03:41:59;;;;;;;12.50;6.22;;;;;;;;;;8258547;28;20499;-74
2021/08/26 03:46:04;;;;;;;11.75;5.82;;;;;;;;;;8258260;28;20041;-74
2021/08/26 03:50:13;;;;;;;12.55;5.65;;;;;;;;;;8240267;28;20460;-73
2021/08/26 03:54:18;;;;;;;20.92;6.50;;;;;;;;;;8256732;28;20072;-74
2021/08/26 03:58:23;;;;;;;11.75;5.50;;;;;;;;;;8260120;28;20041;-74
2021/08/26 04:02:29;;;;;;;10.20;5.57;;;;;;;;;;8258620;28;20455;-73
2021/08/26 04:06:33;;;;;;;15.20;6.07;;;;;;;;;;8256626;28;20067;-74
2021/08/26 04:10:39;;;;;;;11.15;5.57;;;;;;;;;;8258331;28;20363;-74
2021/08/26 04:14:44;;;;;;;13.95;5.97;;;;;;;;;;8258525;28;20068;-74
2021/08/26 04:18:49;;;;;;;14.57;5.97;;;;;;;;;;8258789;28;20612;-74
2021/08/26 04:22:54;;;;;;;14.77;6.18;;;;;;;;;;8259606;28;20333;-73
2021/08/26 04:26:59;;;;;;;11.80;6.10;;;;;;;;;;8257671;28;20059;-73
2021/08/26 04:31:04;;;;;;;11.73;5.78;;;;;;;;;;8256339;28;20335;-73
2021/08/26 04:35:09;;;;;;;11.05;6.32;;;;;;;;;;8255481;28;20475;-73
2021/08/26 04:39:14;;;;;;;10.93;5.47;;;;;;;;;;8255461;28;20372;-74
2021/08/26 04:43:19;;;;;;;10.18;5.60;;;;;;;;;;8261786;28;20463;-74
2021/08/26 04:47:24;;;;;;;10.55;5.78;;;;;;;;;;8265208;28;20356;-74
2021/08/26 04:51:29;;;;;;;23.05;6.75;;;;;;;;;;8262568;28;20131;-74
2021/08/26 04:55:34;;;;;;;10.75;6.30;;;;;;;;;;8262134;28;20344;-74
2021/08/26 04:59:39;;;;;;;10.73;5.32;;;;;;;;;;8263323;28;20349;-74
2021/08/26 05:03:44;;;;;;;11.77;5.75;;;;;;;;;;8263577;28;20377;-74
2021/08/26 05:07:49;;;;;;;11.48;5.47;;;;;;;;;;8265172;28;20051;-74
2021/08/26 05:12:00;;;;;;;12.38;6.40;;;;;;;;;;8245486;28;20371;-74
2021/08/26 05:16:05;;;;;;;11.13;6.22;;;;;;;;;;8263527;28;20348;-75
2021/08/26 05:20:10;;;;;;;8.38;5.63;;;;;;;;;;8262419;28;20372;-73
2021/08/26 05:24:15;;;;;;;15.48;6.47;;;;;;;;;;8262678;28;20049;-73
2021/08/26 05:28:20;;;;;;;14.82;7.07;;;;;;;;;;8262682;28;20345;-73
2021/08/26 05:32:26;;;;;;;12.60;6.53;;;;;;;;;;8243828;28;20542;-73
2021/08/26 05:36:30;;;;;;;15.73;6.57;;;;;;;;;;8244223;28;20471;-73
2021/08/26 05:40:35;;;;;;;13.05;6.88;;;;;;;;;;8262387;28;20384;-73
2021/08/26 05:44:41;;;;;;;12.43;6.32;;;;;;;;;;8261907;28;20464;-73
2021/08/26 05:48:46;;;;;;;12.30;6.60;;;;;;;;;;8261726;28;20468;-73
2021/08/26 05:52:51;;;;;;;15.90;7.07;;;;;;;;;;8260776;28;20495;-74
2021/08/26 05:56:58;;;;;;;13.82;6.78;;;;;;;;;;8244377;28;20356;-73
2021/08/26 06:01:03;;;;;;;13.98;6.88;;;;;;;;;;8260126;28;20368;-74
2021/08/26 06:05:09;;;;;;;13.10;6.20;;;;;;;;;;8262712;28;20467;-73
2021/08/26 06:09:14;;;;;;;12.15;6.18;;;;;;;;;;8260533;28;20342;-74
2021/08/26 06:13:19;;;;;;;12.98;6.25;;;;;;;;;;8261010;28;20451;-74
2021/08/26 06:17:23;;;;;;;11.18;6.25;;;;;;;;;;8259128;28;20375;-74
2021/08/26 06:21:28;;;;;;;11.13;5.50;;;;;;;;;;8260300;28;20041;-74
2021/08/26 06:25:33;;;;;;;14.63;6.40;;;;;;;;;;8258820;28;20456;-74
2021/08/26 06:29:38;;;;;;;11.82;6.32;;;;;;;;;;8260142;28;20348;-74
2021/08/26 06:33:45;;;;;;;11.30;6.97;;;;;;;;;;8257961;28;20061;-74
2021/08/26 06:37:49;;;;;;;14.30;6.82;;;;;;;;;;8260648;28;20403;-74
2021/08/26 06:41:54;;;;;;;15.70;7.20;;;;;;;;;;8262082;28;20030;-74
2021/08/26 06:45:59;;;;;;;15.13;6.47;;;;;;;;;;7570737;28;20003753;-74
2021/08/26 06:50:05;;;;;;;12.77;5.80;;;;;;;;;;8259016;28;20102;-74
2021/08/26 06:54:10;;;;;;;11.80;5.13;;;;;;;;;;8260988;28;20456;-74
2021/08/26 06:58:14;;;;;;;15.82;7.40;;;;;;;;;;8258064;28;20083;-74
2021/08/26 07:02:19;;;;;;;22.02;11.13;;;;;;;;;;8260026;28;20371;-75
2021/08/26 07:06:25;;;;;;;20.70;7.55;;;;;;;;;;8258919;28;20460;-74
2021/08/26 07:10:30;;;;;;;16.75;6.50;;;;;;;;;;8260266;28;20325;-75
2021/08/26 07:14:36;;;;;;;12.43;6.05;;;;;;;;;;8257975;28;20049;-75
2021/08/26 07:18:41;;;;;;;13.48;6.85;;;;;;;;;;8257346;28;20352;-75
2021/08/26 07:22:46;;;;;;;10.70;5.80;;;;;;;;;;8258933;28;20384;-75
2021/08/26 07:26:52;;;;;;;12.93;5.32;;;;;;;;;;8258146;28;20380;-74
2021/08/26 07:30:57;;;;;;;10.98;4.90;;;;;;;;;;8257746;28;20495;-74
2021/08/26 07:35:01;;;;;;;10.75;5.20;;;;;;;;;;8257098;28;20534;-75
2021/08/26 07:39:06;;;;;;;10.13;5.47;;;;;;;;;;8259590;28;20483;-74
2021/08/26 07:43:14;;;;;;;16.58;5.90;;;;;;;;;;8258895;28;20376;-74
2021/08/26 07:47:19;;;;;;;9.85;5.82;;;;;;;;;;8258225;28;20359;-75
2021/08/26 07:51:24;;;;;;;13.75;5.93;;;;;;;;;;8257034;28;20444;-74
2021/08/26 07:55:30;;;;;;;19.48;6.60;;;;;;;;;;8257065;28;20171;-75
2021/08/26 07:59:34;;;;;;;12.50;6.47;;;;;;;;;;8257771;28;20464;-74
2021/08/26 08:03:39;;;;;;;14.50;6.50;;;;;;;;;;8256465;28;20392;-74
2021/08/26 08:07:45;;;;;;;14.15;6.10;;;;;;;;;;8256159;28;20411;-74
2021/08/26 08:11:50;;;;;;;15.00;6.85;;;;;;;;;;8256166;28;20550;-75
2021/08/26 08:15:56;;;;;;;10.80;6.00;;;;;;;;;;8256791;28;20346;-75
2021/08/26 08:20:01;;;;;;;17.33;6.60;;;;;;;;;;8256942;28;20482;-76
2021/08/26 08:24:06;;;;;;;13.15;6.93;;;;;;;;;;8256278;28;20376;-75
2021/08/26 08:28:15;;;;;;;13.10;5.85;;;;;;;;;;8257070;28;20044;-78
2021/08/26 08:32:21;;;;;;;12.82;6.50;;;;;;;;;;8256847;28;20484;-76
2021/08/26 08:36:25;;;;;;;12.13;6.05;;;;;;;;;;8256247;28;20037;-77
2021/08/26 08:40:30;;;;;;;14.55;6.22;;;;;;;;;;8259448;28;20403;-78
2021/08/26 08:44:38;;;;;;;15.57;5.53;;;;;;;;;;8260860;28;20341;-77
2021/08/26 08:48:43;;;;;;;;;;;;;;;;;;8261091;28;20476;-77
2021/08/26 08:52:49;;;;;;;10.10;5.70;;;;;;;;;;8259582;28;20217;-77
2021/08/26 08:56:54;;;;;;;10.38;5.40;;;;;;;;;;8274155;28;20059;-77
2021/08/26 09:00:59;;;;;;;11.65;5.85;;;;;;;;;;8260604;28;20353;-78
2021/08/26 09:05:05;;;;;;;12.10;5.70;;;;;;;;;;8261986;28;20371;-76
2021/08/26 09:09:12;;;;;;;11.07;5.15;;;;;;;;;;8261649;28;20391;-79
2021/08/26 09:13:34;;;;;;;13.60;5.75;;;;;;;;;;8260410;28;20499;-76
2021/08/26 09:17:39;;;;;;;13.13;5.85;;;;;;;;;;8264622;28;20487;-77
2021/08/26 09:21:44;;;;;;;11.75;5.80;;;;;;;;;;8259298;28;20359;-78
2021/08/26 09:25:48;;;;;;;12.77;6.05;;;;;;;;;;8285660;28;20479;-78
2021/08/26 09:30:09;;;;;;;10.82;5.70;;;;;;;;;;8310894;28;20367;-81
2021/08/26 09:34:14;;;;;;;10.45;5.38;;;;;;;;;;8295503;28;20374;-77
2021/08/26 09:38:25;;;;;;;13.18;6.10;;;;;;;;;;8295446;28;20479;-78
2021/08/26 09:42:29;;;;;;;10.02;6.10;;;;;;;;;;8297999;28;20356;-78
2021/08/26 09:46:35;;;;;;;8.27;5.03;;;;;;;;;;8298299;28;20443;-78
2021/08/26 09:50:53;;;;;;;12.48;5.57;;;;;;;;;;8297998;28;20462;-77
2021/08/26 09:54:57;;;;;;;9.00;4.55;;;;;;;;;;8301420;28;20463;-78
2021/08/26 09:59:04;;;;;;;8.60;4.63;;;;;;;;;;8300517;28;20490;-78
2021/08/26 10:03:10;;;;;;;12.90;5.40;;;;;;;;;;8298910;28;20402;-77
2021/08/26 10:07:17;;;;;;;8.80;4.87;;;;;;;;;;8294391;28;20475;-78
2021/08/26 10:11:24;;;;;;;10.20;4.68;;;;;;;;;;8296292;28;20964;-78
2021/08/26 10:15:29;;;;;;;8.18;4.72;;;;;;;;;;8291917;28;20509;-78
2021/08/26 10:19:34;;;;;;;12.45;5.30;;;;;;;;;;8295388;28;20403;-78
2021/08/26 10:23:43;;;;;;;8.45;5.07;;;;;;;;;;8296598;28;20480;-78
2021/08/26 10:27:49;;;;;;;7.53;4.53;;;;;;;;;;8296618;28;20410;-78
2021/08/26 10:31:59;;;;;;;9.05;4.65;;;;;;;;;;8296460;28;20347;-77
2021/08/26 10:36:09;;;;;;;6.93;4.15;;;;;;;;;;8295055;28;20045;-78
2021/08/26 10:40:26;;;;;;;8.20;4.35;;;;;;;;;;8292486;28;20074;-76
2021/08/26 10:45:05;;;;;;;6.40;4.05;;;;;;;;;;8293774;28;20379;-77
2021/08/26 10:49:10;;;;;;;7.00;4.00;;;;;;;;;;8293313;28;20474;-76
2021/08/26 10:53:29;;;;;;;6.88;4.25;;;;;;;;;;8292583;28;20492;-78
2021/08/26 10:57:33;;;;;;;9.18;4.35;;;;;;;;;;8292715;28;20436;-76
2021/08/26 11:01:42;;;;;;;7.70;4.53;;;;;;;;;;8295416;28;20467;-77
2021/08/26 11:05:48;;;;;;;8.43;5.18;;;;;;;;;;8293926;28;20485;-78
2021/08/26 11:09:53;;;;;;;6.53;4.00;;;;;;;;;;8295384;28;20456;-78
2021/08/26 11:17:04;;;;;;;9.55;5.22;;;;;;;;;;8225332;27;1837304;-78
2021/08/26 11:21:09;;;;;;;5.95;3.75;;;;;;;;;;8258571;28;20464;-76
2021/08/26 11:25:26;;;;;;;6.88;3.83;;;;;;;;;;8252643;28;20456;-79
2021/08/26 11:29:36;;;;;;;6.60;3.72;;;;;;;;;;8256468;28;20461;-78
2021/08/26 11:33:41;;;;;;;7.82;4.38;;;;;;;;;;8255766;28;20364;-78
2021/08/26 11:37:47;;;;;;;6.47;3.78;;;;;;;;;;8254951;28;20349;-77
2021/08/26 11:41:52;;;;;;;7.55;3.65;;;;;;;;;;8256121;28;20470;-79
2021/08/26 11:45:57;;;;;;;15.82;4.15;;;;;;;;;;8256190;28;20098;-78
2021/08/26 11:50:11;;;;;;;5.75;3.70;;;;;;;;;;8255802;28;20465;-77
2021/08/26 11:54:22;;;;;;;6.00;3.28;;;;;;;;;;8270231;28;20486;-78
2021/08/26 11:58:32;;;;;;;7.28;3.70;;;;;;;;;;8254793;28;20061;-79
2021/08/26 12:02:38;;;;;;;5.25;2.80;;;;;;;;;;8255038;28;20476;-77
2021/08/26 12:06:49;;;;;;;8.07;3.70;;;;;;;;;;8255602;28;20483;-77
2021/08/26 12:10:56;;;;;;;8.77;3.35;;;;;;;;;;8253676;28;20341;-78
2021/08/26 12:15:01;;;;;;;7.95;3.58;;;;;;;;;;8284734;28;20083;-77
2021/08/26 12:19:07;;;;;;;8.23;4.68;;;;;;;;;;8319614;28;20502;-78
2021/08/26 12:23:21;;;;;;;11.05;4.60;;;;;;;;;;8318106;28;20487;-78
2021/08/26 12:27:30;;;;;;;8.73;4.60;;;;;;;;;;8303693;28;20352;-79
2021/08/26 12:31:43;;;;;;;10.60;6.38;;;;;;;;;;8295765;28;20348;-76
2021/08/26 12:36:01;;;;;;;7.25;4.55;;;;;;;;;;8296032;28;20491;-78
2021/08/26 12:40:46;;;;;;;12.50;6.68;;;;;;;;;;8285134;28;20403;-78
2021/08/26 12:44:53;;;;;;;9.95;3.88;;;;;;;;;;8299242;28;20483;-79
2021/08/26 12:49:11;;;;;;;7.22;4.53;;;;;;;;;;8297534;28;20367;-78
2021/08/26 12:53:20;;;;;;;;;;;;;;;;;;8292683;28;20376;-78
2021/08/26 12:57:25;;;;;;;7.75;3.85;;;;;;;;;;8297009;28;20350;-77
2021/08/26 13:01:31;;;;;;;6.93;3.90;;;;;;;;;;8296907;28;20040;-78
2021/08/26 13:05:52;;;;;;;7.07;3.60;;;;;;;;;;8294054;28;20367;-77
2021/08/26 13:10:03;;;;;;;5.95;3.60;;;;;;;;;;8295149;28;20486;-78
2021/08/26 13:14:09;;;;;;;13.20;3.83;;;;;;;;;;8295961;28;20495;-77
2021/08/26 13:18:14;;;;;;;5.68;3.78;;;;;;;;;;8296948;28;20376;-77
2021/08/26 13:22:37;;;;;;;6.25;3.70;;;;;;;;;;8293754;28;20071;-77
2021/08/26 13:26:43;;;;;;;7.32;4.32;;;;;;;;;;8294332;28;20487;-77
2021/08/26 13:30:48;;;;;;;7.00;4.13;;;;;;;;;;8293231;28;20049;-76
2021/08/26 13:34:53;;;;;;;8.25;4.18;;;;;;;;;;8293310;28;20467;-76
2021/08/26 13:38:59;;;;;;;11.20;5.07;;;;;;;;;;8294362;28;20432;-76
2021/08/26 13:43:04;;;;;;;11.13;4.85;;;;;;;;;;8293833;28;20328;-77
2021/08/26 13:47:10;;;;;;;27.15;9.40;;;;;;;;;;8291181;28;20358;-76
2021/08/26 13:51:15;;;;;;;18.42;7.75;;;;;;;;;;8292574;28;20102;-76
2021/08/26 13:55:20;;;;;;;12.15;5.68;;;;;;;;;;8290421;28;20368;-76
2021/08/26 13:59:26;;;;;;;10.02;4.10;;;;;;;;;;8292122;28;20456;-76
2021/08/26 14:03:31;;;;;;;8.38;4.68;;;;;;;;;;8291749;28;20352;-76
2021/08/26 14:07:36;;;;;;;9.10;3.78;;;;;;;;;;8291948;28;20414;-75
2021/08/26 14:11:41;;;;;;;10.48;4.35;;;;;;;;;;8291238;28;20487;-76
2021/08/26 14:15:46;;;;;;;9.63;4.30;;;;;;;;;;8291049;28;20356;-75
2021/08/26 14:19:53;;;;;;;5.18;3.28;;;;;;;;;;8291266;28;20384;-75
2021/08/26 14:23:58;;;;;;;7.40;3.63;;;;;;;;;;8306139;28;20071;-77
2021/08/26 14:28:05;;;;;;;7.35;3.65;;;;;;;;;;8292444;28;20371;-77
2021/08/26 14:32:13;;;;;;;6.95;3.40;;;;;;;;;;8288637;28;20486;-75
2021/08/26 14:36:19;;;;;;;8.88;4.13;;;;;;;;;;8289150;28;20053;-76
2021/08/26 14:40:24;;;;;;;8.57;4.25;;;;;;;;;;8290425;28;20458;-75
2021/08/26 14:44:30;;;;;;;5.65;3.13;;;;;;;;;;8291599;28;20067;-76
2021/08/26 14:48:34;;;;;;;7.35;2.45;;;;;;;;;;8293093;28;20442;-76
2021/08/26 14:52:39;;;;;;;5.45;2.97;;;;;;;;;;8290612;28;20317;-77
2021/08/26 14:56:44;;;;;;;4.85;3.15;;;;;;;;;;8290654;28;20044;-77
2021/08/26 15:00:49;;;;;;;5.93;2.83;;;;;;;;;;8291082;28;20363;-76
2021/08/26 15:04:55;;;;;;;11.93;3.00;;;;;;;;;;8291674;28;20048;-76
2021/08/26 15:09:00;;;;;;;9.73;3.30;;;;;;;;;;8291639;28;20362;-76
2021/08/26 15:13:05;;;;;;;7.85;3.47;;;;;;;;;;8291796;28;20378;-77
2021/08/26 15:17:10;;;;;;;5.25;3.00;;;;;;;;;;8289884;28;20044;-76
2021/08/26 15:21:15;;;;;;;4.70;2.70;;;;;;;;;;8293504;28;20468;-77
2021/08/26 15:25:20;;;;;;;5.07;2.67;;;;;;;;;;8290217;28;20364;-76
2021/08/26 15:29:25;;;;;;;6.43;3.28;;;;;;;;;;8291283;28;20467;-76
2021/08/26 15:33:31;;;;;;;5.35;3.10;;;;;;;;;;8291406;28;20162;-76
2021/08/26 15:37:36;;;;;;;9.13;3.35;;;;;;;;;;8291202;28;20067;-78
2021/08/26 15:41:44;;;;;;;5.53;2.70;;;;;;;;;;8289058;28;20413;-76
2021/08/26 15:45:50;;;;;;;6.38;3.22;;;;;;;;;;8292243;28;20466;-76
2021/08/26 15:49:55;;;;;;;7.40;3.67;;;;;;;;;;8291369;28;20398;-76
2021/08/26 15:54:04;;;;;;;4.55;2.72;;;;;;;;;;8291169;28;20037;-75
2021/08/26 16:02:32;;;;;;;5.00;2.83;;;;;;;;;;8278933;28;20044;-76
2021/08/26 16:06:38;;;;;;;4.63;2.60;;;;;;;;;;8294405;28;20044;-75
2021/08/26 16:10:44;;;;;;;9.23;4.57;;;;;;;;;;8294731;28;20479;-76
2021/08/26 16:14:50;;;;;;;4.75;2.83;;;;;;;;;;8294951;28;20367;-76
2021/08/26 16:18:55;;;;;;;12.13;5.75;;;;;;;;;;8294990;28;20360;-76
2021/08/26 16:23:00;;;;;;;12.32;5.63;;;;;;;;;;8297217;28;20483;-75
2021/08/26 16:27:05;;;;;;;5.30;3.03;;;;;;;;;;8293582;28;20565;-75
2021/08/26 16:31:10;;;;;;;9.85;7.05;;;;;;;;;;8294145;28;20355;-75
2021/08/26 16:35:16;;;;;;;6.25;3.88;;;;;;;;;;8294449;28;20317;-75
2021/08/26 16:39:21;;;;;;;10.98;7.20;;;;;;;;;;8276083;28;20071;-75
2021/08/26 16:43:26;;;;;;;9.73;3.38;;;;;;;;;;8276468;28;20408;-75
2021/08/26 16:47:32;;;;;;;4.47;2.40;;;;;;;;;;8295215;28;20510;-76
2021/08/26 16:51:37;;;;;;;6.80;3.72;;;;;;;;;;8294611;28;20455;-76
2021/08/26 16:55:42;;;;;;;8.85;4.18;;;;;;;;;;8294816;28;20158;-75
2021/08/26 16:59:47;;;;;;;9.85;3.75;;;;;;;;;;8295256;28;20478;-76
2021/08/26 17:03:53;;;;;;;10.75;5.05;;;;;;;;;;8295453;28;20348;-76
2021/08/26 17:07:58;;;;;;;10.57;4.30;;;;;;;;;;8294114;28;20502;-76
2021/08/26 17:12:03;;;;;;;5.43;2.72;;;;;;;;;;8293618;28;20067;-75
2021/08/26 17:16:10;;;;;;;8.38;3.67;;;;;;;;;;8293481;28;20589;-75
2021/08/26 17:20:17;;;;;;;4.97;2.80;;;;;;;;;;8293759;28;20357;-76
2021/08/26 17:24:23;;;;;;;5.00;3.25;;;;;;;;;;8293282;28;20478;-75
2021/08/26 17:28:28;;;;;;;5.60;2.30;;;;;;;;;;8291564;28;20360;-76
2021/08/26 17:32:34;;;;;;;4.57;2.60;;;;;;;;;;8293849;28;20333;-75
2021/08/26 17:36:39;;;;;;;7.82;3.28;;;;;;;;;;8293145;28;20482;-75
2021/08/26 17:40:44;;;;;;;14.73;7.68;;;;;;;;;;8293111;28;20329;-76
2021/08/26 17:44:49;;;;;;;5.65;3.13;;;;;;;;;;8293354;28;20367;-76
2021/08/26 17:48:54;;;;;;;7.95;3.58;;;;;;;;;;8290884;28;20479;-76
2021/08/26 17:53:00;;;;;;;7.85;3.45;;;;;;;;;;8291893;28;20490;-76
2021/08/26 17:57:06;;;;;;;8.73;3.47;;;;;;;;;;8291016;28;20493;-76
2021/08/26 18:01:11;;;;;;;7.28;3.72;;;;;;;;;;8294086;28;20608;-76
2021/08/26 18:05:26;;;;;;;8.55;4.20;;;;;;;;;;8274507;28;20371;-76
2021/08/26 18:09:31;;;;;;;10.27;5.70;;;;;;;;;;8290886;28;20467;-77
2021/08/26 18:13:37;;;;;;;7.95;4.80;;;;;;;;;;8291815;28;20643;-77
2021/08/26 18:17:41;;;;;;;9.48;5.43;;;;;;;;;;8290955;28;20044;-76
2021/08/26 18:21:46;;;;;;;9.30;5.47;;;;;;;;;;8292875;28;20359;-76
2021/08/26 18:25:51;;;;;;;8.77;4.63;;;;;;;;;;8289976;28;20343;-76
2021/08/26 18:29:57;;;;;;;8.82;3.95;;;;;;;;;;8291519;28;20394;-77
2021/08/26 18:34:02;;;;;;;15.32;6.50;;;;;;;;;;8289125;28;20360;-76
2021/08/26 18:38:07;;;;;;;16.27;5.53;;;;;;;;;;8289169;28;20062;-76
2021/08/26 18:42:12;;;;;;;10.68;4.20;;;;;;;;;;8289929;28;20368;-76
2021/08/26 18:46:17;;;;;;;10.35;4.63;;;;;;;;;;8305732;28;20462;-77
2021/08/26 18:50:22;;;;;;;6.57;3.50;;;;;;;;;;8291654;28;20497;-76
2021/08/26 18:54:27;;;;;;;12.05;3.83;;;;;;;;;;8305034;28;20459;-77
2021/08/26 18:58:34;;;;;;;8.00;5.00;;;;;;;;;;8291434;28;20352;-77
2021/08/26 19:02:40;;;;;;;7.75;4.05;;;;;;;;;;8293300;28;20454;-77
2021/08/26 19:06:45;;;;;;;6.03;3.13;;;;;;;;;;8290490;28;20386;-76
2021/08/26 19:10:50;;;;;;;5.22;3.08;;;;;;;;;;8291127;28;20463;-77
2021/08/26 19:14:58;;;;;;;4.70;3.05;;;;;;;;;;8288637;28;20494;-77
2021/08/26 19:19:03;;;;;;;5.50;3.15;;;;;;;;;;8290710;28;20464;-76
2021/08/26 19:23:08;;;;;;;8.45;3.55;;;;;;;;;;8294440;28;20486;-77
2021/08/26 19:27:14;;;;;;;4.60;3.00;;;;;;;;;;8309053;28;20334;-76
2021/08/26 19:31:19;;;;;;;5.45;3.60;;;;;;;;;;8293271;28;20459;-77
2021/08/26 19:35:24;;;;;;;4.53;3.50;;;;;;;;;;8301224;28;20103;-78
2021/08/26 19:39:29;;;;;;;6.53;4.25;;;;;;;;;;8300174;28;20471;-76
2021/08/26 19:43:34;;;;;;;8.48;4.28;;;;;;;;;;8302080;28;20471;-77
2021/08/26 19:47:40;;;;;;;11.38;4.90;;;;;;;;;;8307036;28;20099;-76
2021/08/26 19:51:46;;;;;;;9.68;3.95;;;;;;;;;;8318361;28;20505;-76
2021/08/26 19:55:51;;;;;;;8.18;5.13;;;;;;;;;;8305459;28;20070;-77
2021/08/26 19:59:56;;;;;;;10.55;5.10;;;;;;;;;;8310085;28;20481;-77
2021/08/26 20:04:02;;;;;;;8.45;5.00;;;;;;;;;;8308481;28;20067;-77
2021/08/26 20:08:07;;;;;;;9.18;5.22;;;;;;;;;;8303408;28;20410;-77
2021/08/26 20:12:12;;;;;;;9.95;5.45;;;;;;;;;;8300990;28;20052;-77
2021/08/26 20:16:17;;;;;;;12.32;5.05;;;;;;;;;;8296514;28;20360;-76
2021/08/26 20:20:23;;;;;;;11.15;5.95;;;;;;;;;;8301389;28;20480;-78
2021/08/26 20:24:28;;;;;;;10.90;5.80;;;;;;;;;;8295933;28;20075;-77
2021/08/26 20:28:33;;;;;;;9.93;5.22;;;;;;;;;;8295792;28;20499;-77
2021/08/26 20:32:41;;;;;;;9.82;4.65;;;;;;;;;;8299616;28;20071;-76
2021/08/26 20:36:46;;;;;;;9.57;5.20;;;;;;;;;;8297902;28;20072;-77
2021/08/26 20:40:51;;;;;;;10.23;4.90;;;;;;;;;;8296019;28;20478;-77
2021/08/26 20:44:56;;;;;;;14.20;4.65;;;;;;;;;;8295001;28;20479;-77
2021/08/26 20:49:01;;;;;;;8.40;4.05;;;;;;;;;;8311689;28;20059;-77
2021/08/26 20:53:06;;;;;;;8.07;4.70;;;;;;;;;;8299381;28;20363;-76
2021/08/26 20:57:17;;;;;;;7.32;3.88;;;;;;;;;;8296677;28;20371;-77
2021/08/26 21:01:23;;;;;;;6.75;3.63;;;;;;;;;;8300918;28;20040;-76
2021/08/26 21:05:28;;;;;;;5.68;3.63;;;;;;;;;;8294910;28;20336;-78
2021/08/26 21:09:34;;;;;;;8.77;4.07;;;;;;;;;;8292873;28;20459;-77
2021/08/26 21:13:39;;;;;;;5.70;3.42;;;;;;;;;;8294389;28;20439;-76
2021/08/26 21:17:43;;;;;;;7.15;4.50;;;;;;;;;;8294706;28;20406;-77
2021/08/26 21:21:49;;;;;;;11.40;4.25;;;;;;;;;;8296012;28;20448;-77
2021/08/26 21:25:54;;;;;;;12.02;4.40;;;;;;;;;;8298019;28;20499;-77
2021/08/26 21:29:59;;;;;;;8.48;4.50;;;;;;;;;;8294608;28;20479;-77
2021/08/26 21:34:04;;;;;;;8.05;4.40;;;;;;;;;;8294333;28;20054;-77
2021/08/26 21:38:09;;;;;;;9.63;4.90;;;;;;;;;;8294959;28;20356;-77
2021/08/26 21:42:15;;;;;;;10.02;5.18;;;;;;;;;;8293758;28;20341;-77
2021/08/26 21:46:21;;;;;;;9.82;4.03;;;;;;;;;;8294711;28;20371;-76
2021/08/26 21:50:26;;;;;;;9.50;4.65;;;;;;;;;;8275958;28;20406;-77
2021/08/26 21:54:32;;;;;;;8.35;3.92;;;;;;;;;;8291415;28;20371;-77
2021/08/26 21:58:38;;;;;;;11.82;5.32;;;;;;;;;;8273651;28;20371;-76
2021/08/26 22:02:44;;;;;;;20.33;7.97;;;;;;;;;;8302177;28;20490;-76
2021/08/26 22:06:49;;;;;;;17.00;7.65;;;;;;;;;;8302682;28;20362;-77
2021/08/26 22:10:57;;;;;;;17.38;8.43;;;;;;;;;;8299736;28;20367;-77
2021/08/26 22:15:08;;;;;;;42.42;7.60;;;;;;;;;;8299154;28;20364;-77
2021/08/26 22:19:14;;;;;;;33.33;7.32;;;;;;;;;;8298990;28;20379;-76
2021/08/26 22:23:21;;;;;;;15.70;7.65;;;;;;;;;;8302471;28;20070;-76
2021/08/26 22:27:26;;;;;;;66.77;7.30;;;;;;;;;;8298282;28;20359;-76
2021/08/26 22:31:32;;;;;;;55.28;6.45;;;;;;;;;;8295812;28;20059;-77
2021/08/26 22:35:38;;;;;;;45.35;6.70;;;;;;;;;;8299601;28;20359;-76
2021/08/26 22:39:43;;;;;;;51.25;7.25;;;;;;;;;;8299692;28;20044;-77
2021/08/26 22:43:48;;;;;;;34.83;7.57;;;;;;;;;;8296554;28;20479;-76
2021/08/26 22:47:53;;;;;;;68.35;7.30;;;;;;;;;;8295354;28;20324;-77
2021/08/26 22:51:59;;;;;;;42.10;7.22;;;;;;;;;;8295400;28;20368;-77
2021/08/26 22:56:04;;;;;;;38.92;6.93;;;;;;;;;;8292846;28;20356;-76
2021/08/26 23:00:11;;;;;;;48.85;7.75;;;;;;;;;;8294946;28;20402;-76
2021/08/26 23:04:17;;;;;;;35.00;7.40;;;;;;;;;;8296445;28;20482;-76
2021/08/26 23:08:22;;;;;;;34.47;6.65;;;;;;;;;;8294668;28;20047;-77
2021/08/26 23:12:28;;;;;;;62.45;7.25;;;;;;;;;;8294910;28;20387;-77
2021/08/26 23:16:34;;;;;;;48.15;7.53;;;;;;;;;;8293895;28;20074;-77
2021/08/26 23:20:39;;;;;;;54.70;8.98;;;;;;;;;;8295204;28;20499;-76
2021/08/26 23:24:44;;;;;;;50.83;9.02;;;;;;;;;;8293889;28;20379;-76
2021/08/26 23:28:49;;;;;;;35.75;8.18;;;;;;;;;;8292264;28;20492;-76
2021/08/26 23:32:54;;;;;;;48.22;9.27;;;;;;;;;;8291424;28;20470;-76
2021/08/26 23:36:59;;;;;;;44.08;9.48;;;;;;;;;;8290998;28;20471;-77
2021/08/26 23:41:04;;;;;;;28.88;9.13;;;;;;;;;;8294338;28;20074;-76
2021/08/26 23:45:10;;;;;;;29.40;9.98;;;;;;;;;;8295146;28;20363;-77
2021/08/26 23:49:16;;;;;;;27.05;9.55;;;;;;;;;;8294742;28;20363;-77
2021/08/26 23:53:21;;;;;;;28.00;9.48;;;;;;;;;;8292811;28;20367;-76
2021/08/26 23:57:27;;;;;;;28.00;9.75;;;;;;;;;;8290682;28;20391;-76
